sensor_id;sensor_type;location;lat;lon;timestamp;P1;durP1;ratioP1;P2;durP2;ratioP2
19278;SDS011;9773;47.062;15.446;2022-10-22T00:01:17;12.37;;;11.07;;
19278;SDS011;9773;47.062;15.446;2022-10-22T00:03:44;13.23;;;10.70;;
19278;SDS011;9773;47.062;15.446;2022-10-22T00:06:10;13.83;;;10.77;;
19278;SDS011;9773;47.062;15.446;2022-10-22T00:08:35;11.53;;;10.33;;
19278;SDS011;9773;47.062;15.446;2022-10-22T00:11:09;14.30;;;10.87;;
19278;SDS011;9773;47.062;15.446;2022-10-22T00:13:36;14.37;;;11.80;;
19278;SDS011;9773;47.062;15.446;2022-10-22T00:16:02;13.57;;;11.07;;
19278;SDS011;9773;47.062;15.446;2022-10-22T00:18:28;14.40;;;11.50;;
19278;SDS011;9773;47.062;15.446;2022-10-22T00:20:53;12.97;;;11.37;;
19278;SDS011;9773;47.062;15.446;2022-10-22T00:23:20;12.23;;;10.90;;
19278;SDS011;9773;47.062;15.446;2022-10-22T00:25:45;13.57;;;11.07;;
19278;SDS011;9773;47.062;15.446;2022-10-22T00:28:11;12.60;;;10.43;;
19278;SDS011;9773;47.062;15.446;2022-10-22T00:30:37;12.73;;;10.50;;
19278;SDS011;9773;47.062;15.446;2022-10-22T00:33:02;15.73;;;10.67;;
19278;SDS011;9773;47.062;15.446;2022-10-22T00:35:28;13.43;;;10.90;;
19278;SDS011;9773;47.062;15.446;2022-10-22T00:37:54;12.33;;;10.23;;
19278;SDS011;9773;47.062;15.446;2022-10-22T00:40:20;12.13;;;10.27;;
19278;SDS011;9773;47.062;15.446;2022-10-22T00:42:45;11.93;;;10.37;;
19278;SDS011;9773;47.062;15.446;2022-10-22T00:53:37;12.77;;;10.73;;
19278;SDS011;9773;47.062;15.446;2022-10-22T00:56:09;13.63;;;10.70;;
19278;SDS011;9773;47.062;15.446;2022-10-22T00:58:36;14.00;;;10.53;;
19278;SDS011;9773;47.062;15.446;2022-10-22T01:01:07;13.40;;;10.77;;
19278;SDS011;9773;47.062;15.446;2022-10-22T01:03:36;13.33;;;11.03;;
19278;SDS011;9773;47.062;15.446;2022-10-22T01:06:02;14.07;;;10.07;;
19278;SDS011;9773;47.062;15.446;2022-10-22T01:16:33;11.27;;;9.73;;
19278;SDS011;9773;47.062;15.446;2022-10-22T01:21:59;13.80;;;11.07;;
19278;SDS011;9773;47.062;15.446;2022-10-22T01:29:46;11.57;;;10.00;;
19278;SDS011;9773;47.062;15.446;2022-10-22T01:32:24;11.47;;;10.27;;
19278;SDS011;9773;47.062;15.446;2022-10-22T01:34:52;13.17;;;10.10;;
19278;SDS011;9773;47.062;15.446;2022-10-22T01:37:22;11.67;;;10.47;;
19278;SDS011;9773;47.062;15.446;2022-10-22T01:39:50;13.83;;;10.83;;
19278;SDS011;9773;47.062;15.446;2022-10-22T01:42:18;11.53;;;10.00;;
19278;SDS011;9773;47.062;15.446;2022-10-22T01:44:43;11.63;;;10.40;;
19278;SDS011;9773;47.062;15.446;2022-10-22T01:52:55;13.47;;;10.97;;
19278;SDS011;9773;47.062;15.446;2022-10-22T01:55:45;11.77;;;10.40;;
19278;SDS011;9773;47.062;15.446;2022-10-22T02:01:03;13.37;;;10.70;;
19278;SDS011;9773;47.062;15.446;2022-10-22T02:03:50;11.87;;;10.37;;
19278;SDS011;9773;47.062;15.446;2022-10-22T02:06:39;12.07;;;9.90;;
19278;SDS011;9773;47.062;15.446;2022-10-22T02:09:08;11.17;;;9.97;;
19278;SDS011;9773;47.062;15.446;2022-10-22T02:11:37;11.90;;;10.70;;
19278;SDS011;9773;47.062;15.446;2022-10-22T02:14:05;12.53;;;10.60;;
19278;SDS011;9773;47.062;15.446;2022-10-22T02:16:34;12.63;;;10.20;;
19278;SDS011;9773;47.062;15.446;2022-10-22T02:19:05;11.40;;;9.80;;
19278;SDS011;9773;47.062;15.446;2022-10-22T02:21:41;14.67;;;9.90;;
19278;SDS011;9773;47.062;15.446;2022-10-22T02:24:08;10.33;;;9.33;;
19278;SDS011;9773;47.062;15.446;2022-10-22T02:26:35;12.77;;;10.53;;
19278;SDS011;9773;47.062;15.446;2022-10-22T02:31:51;12.47;;;9.30;;
19278;SDS011;9773;47.062;15.446;2022-10-22T02:34:21;11.33;;;9.30;;
19278;SDS011;9773;47.062;15.446;2022-10-22T02:36:50;14.23;;;9.60;;
19278;SDS011;9773;47.062;15.446;2022-10-22T02:39:16;11.77;;;9.37;;
19278;SDS011;9773;47.062;15.446;2022-10-22T02:41:44;10.57;;;9.47;;
19278;SDS011;9773;47.062;15.446;2022-10-22T02:44:10;12.20;;;10.63;;
19278;SDS011;9773;47.062;15.446;2022-10-22T02:46:37;12.43;;;9.73;;
19278;SDS011;9773;47.062;15.446;2022-10-22T02:49:04;11.53;;;9.83;;
19278;SDS011;9773;47.062;15.446;2022-10-22T02:51:30;10.73;;;9.63;;
19278;SDS011;9773;47.062;15.446;2022-10-22T02:53:55;11.73;;;10.00;;
19278;SDS011;9773;47.062;15.446;2022-10-22T02:56:21;12.40;;;9.33;;
19278;SDS011;9773;47.062;15.446;2022-10-22T02:58:47;14.03;;;10.80;;
19278;SDS011;9773;47.062;15.446;2022-10-22T03:01:12;11.27;;;9.80;;
19278;SDS011;9773;47.062;15.446;2022-10-22T03:03:38;14.10;;;10.73;;
19278;SDS011;9773;47.062;15.446;2022-10-22T03:06:04;13.43;;;10.20;;
19278;SDS011;9773;47.062;15.446;2022-10-22T03:08:30;11.20;;;10.07;;
19278;SDS011;9773;47.062;15.446;2022-10-22T03:10:55;13.67;;;10.07;;
19278;SDS011;9773;47.062;15.446;2022-10-22T03:13:21;13.60;;;10.10;;
19278;SDS011;9773;47.062;15.446;2022-10-22T03:15:48;13.17;;;10.20;;
19278;SDS011;9773;47.062;15.446;2022-10-22T03:18:14;15.53;;;10.50;;
19278;SDS011;9773;47.062;15.446;2022-10-22T03:20:41;12.70;;;10.23;;
19278;SDS011;9773;47.062;15.446;2022-10-22T03:23:06;12.03;;;10.27;;
19278;SDS011;9773;47.062;15.446;2022-10-22T03:25:32;11.53;;;9.23;;
19278;SDS011;9773;47.062;15.446;2022-10-22T03:28:03;13.20;;;9.90;;
19278;SDS011;9773;47.062;15.446;2022-10-22T03:30:31;12.33;;;10.77;;
19278;SDS011;9773;47.062;15.446;2022-10-22T03:32:57;13.00;;;9.77;;
19278;SDS011;9773;47.062;15.446;2022-10-22T03:35:22;11.80;;;9.17;;
19278;SDS011;9773;47.062;15.446;2022-10-22T03:37:48;13.27;;;10.23;;
19278;SDS011;9773;47.062;15.446;2022-10-22T03:40:15;12.40;;;10.90;;
19278;SDS011;9773;47.062;15.446;2022-10-22T03:42:41;11.33;;;10.13;;
19278;SDS011;9773;47.062;15.446;2022-10-22T03:45:07;11.27;;;10.03;;
19278;SDS011;9773;47.062;15.446;2022-10-22T03:47:34;11.70;;;9.50;;
19278;SDS011;9773;47.062;15.446;2022-10-22T03:50:01;12.23;;;10.23;;
19278;SDS011;9773;47.062;15.446;2022-10-22T03:52:27;10.83;;;9.17;;
19278;SDS011;9773;47.062;15.446;2022-10-22T03:54:53;14.67;;;10.27;;
19278;SDS011;9773;47.062;15.446;2022-10-22T03:57:19;11.70;;;9.73;;
19278;SDS011;9773;47.062;15.446;2022-10-22T03:59:45;12.60;;;10.10;;
19278;SDS011;9773;47.062;15.446;2022-10-22T04:02:12;10.57;;;9.50;;
19278;SDS011;9773;47.062;15.446;2022-10-22T04:04:38;12.50;;;10.43;;
19278;SDS011;9773;47.062;15.446;2022-10-22T04:07:05;11.53;;;9.93;;
19278;SDS011;9773;47.062;15.446;2022-10-22T04:09:31;10.87;;;9.77;;
19278;SDS011;9773;47.062;15.446;2022-10-22T04:11:58;12.07;;;9.77;;
19278;SDS011;9773;47.062;15.446;2022-10-22T04:14:24;10.83;;;9.77;;
19278;SDS011;9773;47.062;15.446;2022-10-22T04:16:50;10.30;;;9.23;;
19278;SDS011;9773;47.062;15.446;2022-10-22T04:19:15;11.53;;;9.90;;
19278;SDS011;9773;47.062;15.446;2022-10-22T04:21:42;12.33;;;10.00;;
19278;SDS011;9773;47.062;15.446;2022-10-22T04:24:08;11.63;;;10.07;;
19278;SDS011;9773;47.062;15.446;2022-10-22T04:26:34;12.03;;;10.03;;
19278;SDS011;9773;47.062;15.446;2022-10-22T04:29:00;14.27;;;10.23;;
19278;SDS011;9773;47.062;15.446;2022-10-22T04:31:26;11.73;;;9.63;;
19278;SDS011;9773;47.062;15.446;2022-10-22T04:33:52;12.33;;;9.30;;
19278;SDS011;9773;47.062;15.446;2022-10-22T04:36:19;10.80;;;9.13;;
19278;SDS011;9773;47.062;15.446;2022-10-22T04:38:46;12.83;;;9.97;;
19278;SDS011;9773;47.062;15.446;2022-10-22T04:41:16;10.70;;;9.60;;
19278;SDS011;9773;47.062;15.446;2022-10-22T04:43:44;14.77;;;10.67;;
19278;SDS011;9773;47.062;15.446;2022-10-22T04:46:13;11.00;;;9.77;;
19278;SDS011;9773;47.062;15.446;2022-10-22T04:48:41;12.37;;;10.00;;
19278;SDS011;9773;47.062;15.446;2022-10-22T04:51:09;10.67;;;9.33;;
19278;SDS011;9773;47.062;15.446;2022-10-22T04:53:36;11.43;;;9.17;;
19278;SDS011;9773;47.062;15.446;2022-10-22T04:56:08;13.97;;;9.60;;
19278;SDS011;9773;47.062;15.446;2022-10-22T04:58:40;14.47;;;9.53;;
19278;SDS011;9773;47.062;15.446;2022-10-22T05:01:14;12.37;;;9.27;;
19278;SDS011;9773;47.062;15.446;2022-10-22T05:03:42;11.20;;;9.73;;
19278;SDS011;9773;47.062;15.446;2022-10-22T05:06:08;14.27;;;9.40;;
19278;SDS011;9773;47.062;15.446;2022-10-22T05:08:35;11.17;;;9.50;;
19278;SDS011;9773;47.062;15.446;2022-10-22T05:11:01;11.87;;;9.63;;
19278;SDS011;9773;47.062;15.446;2022-10-22T05:13:35;12.80;;;10.10;;
19278;SDS011;9773;47.062;15.446;2022-10-22T05:16:01;12.10;;;9.43;;
19278;SDS011;9773;47.062;15.446;2022-10-22T05:18:26;10.83;;;9.73;;
19278;SDS011;9773;47.062;15.446;2022-10-22T05:20:52;10.10;;;9.03;;
19278;SDS011;9773;47.062;15.446;2022-10-22T05:23:18;9.80;;;8.80;;
19278;SDS011;9773;47.062;15.446;2022-10-22T05:25:44;11.93;;;9.57;;
19278;SDS011;9773;47.062;15.446;2022-10-22T05:28:09;12.70;;;9.37;;
19278;SDS011;9773;47.062;15.446;2022-10-22T05:30:35;10.93;;;9.80;;
19278;SDS011;9773;47.062;15.446;2022-10-22T05:33:01;13.00;;;9.40;;
19278;SDS011;9773;47.062;15.446;2022-10-22T05:35:26;12.27;;;9.67;;
19278;SDS011;9773;47.062;15.446;2022-10-22T05:37:52;13.43;;;9.43;;
19278;SDS011;9773;47.062;15.446;2022-10-22T05:40:18;9.97;;;8.93;;
19278;SDS011;9773;47.062;15.446;2022-10-22T05:42:43;12.33;;;9.40;;
19278;SDS011;9773;47.062;15.446;2022-10-22T05:45:09;11.27;;;9.30;;
19278;SDS011;9773;47.062;15.446;2022-10-22T05:47:35;11.03;;;9.43;;
19278;SDS011;9773;47.062;15.446;2022-10-22T05:50:01;10.60;;;8.67;;
19278;SDS011;9773;47.062;15.446;2022-10-22T05:52:27;10.60;;;8.80;;
19278;SDS011;9773;47.062;15.446;2022-10-22T05:54:52;10.40;;;9.07;;
19278;SDS011;9773;47.062;15.446;2022-10-22T05:57:18;12.77;;;9.17;;
19278;SDS011;9773;47.062;15.446;2022-10-22T05:59:44;15.20;;;9.03;;
19278;SDS011;9773;47.062;15.446;2022-10-22T06:02:10;10.93;;;8.30;;
19278;SDS011;9773;47.062;15.446;2022-10-22T06:04:36;11.60;;;8.93;;
19278;SDS011;9773;47.062;15.446;2022-10-22T06:07:02;10.27;;;9.17;;
19278;SDS011;9773;47.062;15.446;2022-10-22T06:09:29;10.47;;;8.63;;
19278;SDS011;9773;47.062;15.446;2022-10-22T06:11:58;10.90;;;9.27;;
19278;SDS011;9773;47.062;15.446;2022-10-22T06:14:24;12.20;;;9.40;;
19278;SDS011;9773;47.062;15.446;2022-10-22T06:17:08;7.97;;;7.13;;
19278;SDS011;9773;47.062;15.446;2022-10-22T06:19:35;12.80;;;8.67;;
19278;SDS011;9773;47.062;15.446;2022-10-22T06:22:02;11.27;;;8.40;;
19278;SDS011;9773;47.062;15.446;2022-10-22T06:24:28;9.73;;;8.77;;
19278;SDS011;9773;47.062;15.446;2022-10-22T06:26:54;11.27;;;8.53;;
19278;SDS011;9773;47.062;15.446;2022-10-22T06:29:20;12.00;;;8.33;;
19278;SDS011;9773;47.062;15.446;2022-10-22T06:31:46;8.47;;;7.33;;
19278;SDS011;9773;47.062;15.446;2022-10-22T06:34:12;8.30;;;7.50;;
19278;SDS011;9773;47.062;15.446;2022-10-22T06:36:39;11.13;;;7.50;;
19278;SDS011;9773;47.062;15.446;2022-10-22T06:39:09;10.30;;;7.90;;
19278;SDS011;9773;47.062;15.446;2022-10-22T06:41:36;10.20;;;7.90;;
19278;SDS011;9773;47.062;15.446;2022-10-22T06:44:02;10.47;;;8.03;;
19278;SDS011;9773;47.062;15.446;2022-10-22T06:46:28;9.00;;;7.50;;
19278;SDS011;9773;47.062;15.446;2022-10-22T06:48:56;9.10;;;8.20;;
19278;SDS011;9773;47.062;15.446;2022-10-22T06:51:27;9.80;;;8.23;;
19278;SDS011;9773;47.062;15.446;2022-10-22T06:53:54;11.23;;;8.23;;
19278;SDS011;9773;47.062;15.446;2022-10-22T06:56:21;12.13;;;8.20;;
19278;SDS011;9773;47.062;15.446;2022-10-22T06:58:49;9.77;;;8.37;;
19278;SDS011;9773;47.062;15.446;2022-10-22T07:01:16;9.83;;;8.23;;
19278;SDS011;9773;47.062;15.446;2022-10-22T07:03:43;11.30;;;8.70;;
19278;SDS011;9773;47.062;15.446;2022-10-22T07:06:10;12.90;;;8.60;;
19278;SDS011;9773;47.062;15.446;2022-10-22T07:08:38;12.53;;;8.20;;
19278;SDS011;9773;47.062;15.446;2022-10-22T07:11:06;11.30;;;8.03;;
19278;SDS011;9773;47.062;15.446;2022-10-22T07:13:45;9.00;;;7.80;;
19278;SDS011;9773;47.062;15.446;2022-10-22T07:16:11;8.33;;;7.50;;
19278;SDS011;9773;47.062;15.446;2022-10-22T07:18:37;11.30;;;8.33;;
19278;SDS011;9773;47.062;15.446;2022-10-22T07:21:05;10.23;;;7.77;;
19278;SDS011;9773;47.062;15.446;2022-10-22T07:23:31;11.53;;;7.77;;
19278;SDS011;9773;47.062;15.446;2022-10-22T07:25:57;11.23;;;8.30;;
19278;SDS011;9773;47.062;15.446;2022-10-22T07:28:23;12.93;;;8.83;;
19278;SDS011;9773;47.062;15.446;2022-10-22T07:30:49;10.30;;;8.93;;
19278;SDS011;9773;47.062;15.446;2022-10-22T07:33:15;13.00;;;9.83;;
19278;SDS011;9773;47.062;15.446;2022-10-22T07:35:41;14.50;;;9.93;;
19278;SDS011;9773;47.062;15.446;2022-10-22T07:38:07;13.00;;;9.30;;
19278;SDS011;9773;47.062;15.446;2022-10-22T07:40:33;11.47;;;8.50;;
19278;SDS011;9773;47.062;15.446;2022-10-22T07:43:00;10.70;;;7.90;;
19278;SDS011;9773;47.062;15.446;2022-10-22T07:45:26;7.60;;;6.57;;
19278;SDS011;9773;47.062;15.446;2022-10-22T07:47:52;7.80;;;7.03;;
19278;SDS011;9773;47.062;15.446;2022-10-22T07:50:18;8.60;;;6.93;;
19278;SDS011;9773;47.062;15.446;2022-10-22T07:52:43;9.20;;;6.93;;
19278;SDS011;9773;47.062;15.446;2022-10-22T07:55:09;8.50;;;6.67;;
19278;SDS011;9773;47.062;15.446;2022-10-22T07:57:40;8.03;;;6.40;;
19278;SDS011;9773;47.062;15.446;2022-10-22T08:00:07;10.83;;;6.60;;
19278;SDS011;9773;47.062;15.446;2022-10-22T08:02:33;7.90;;;6.17;;
19278;SDS011;9773;47.062;15.446;2022-10-22T08:04:59;7.87;;;6.23;;
19278;SDS011;9773;47.062;15.446;2022-10-22T08:07:25;9.83;;;6.13;;
19278;SDS011;9773;47.062;15.446;2022-10-22T08:09:51;6.80;;;6.10;;
19278;SDS011;9773;47.062;15.446;2022-10-22T08:12:17;7.07;;;5.57;;
19278;SDS011;9773;47.062;15.446;2022-10-22T08:14:43;8.73;;;6.27;;
19278;SDS011;9773;47.062;15.446;2022-10-22T08:17:09;6.27;;;5.50;;
19278;SDS011;9773;47.062;15.446;2022-10-22T08:19:34;7.27;;;6.07;;
19278;SDS011;9773;47.062;15.446;2022-10-22T08:22:00;8.67;;;5.87;;
19278;SDS011;9773;47.062;15.446;2022-10-22T08:24:26;8.73;;;5.80;;
19278;SDS011;9773;47.062;15.446;2022-10-22T08:26:53;6.77;;;5.40;;
19278;SDS011;9773;47.062;15.446;2022-10-22T08:29:20;7.23;;;6.43;;
19278;SDS011;9773;47.062;15.446;2022-10-22T08:31:47;8.23;;;6.23;;
19278;SDS011;9773;47.062;15.446;2022-10-22T08:34:14;6.30;;;5.53;;
19278;SDS011;9773;47.062;15.446;2022-10-22T08:36:40;7.03;;;5.90;;
19278;SDS011;9773;47.062;15.446;2022-10-22T08:39:06;8.13;;;6.03;;
19278;SDS011;9773;47.062;15.446;2022-10-22T08:41:33;6.47;;;5.73;;
19278;SDS011;9773;47.062;15.446;2022-10-22T08:46:43;7.50;;;6.47;;
19278;SDS011;9773;47.062;15.446;2022-10-22T08:49:32;8.40;;;5.97;;
19278;SDS011;9773;47.062;15.446;2022-10-22T08:52:00;6.90;;;5.63;;
19278;SDS011;9773;47.062;15.446;2022-10-22T08:54:31;6.60;;;5.97;;
19278;SDS011;9773;47.062;15.446;2022-10-22T09:05:36;7.50;;;6.73;;
19278;SDS011;9773;47.062;15.446;2022-10-22T09:08:23;8.73;;;6.17;;
19278;SDS011;9773;47.062;15.446;2022-10-22T09:10:53;8.67;;;6.60;;
19278;SDS011;9773;47.062;15.446;2022-10-22T09:13:31;8.27;;;6.40;;
19278;SDS011;9773;47.062;15.446;2022-10-22T09:16:00;7.77;;;6.73;;
19278;SDS011;9773;47.062;15.446;2022-10-22T09:18:39;13.27;;;6.37;;
19278;SDS011;9773;47.062;15.446;2022-10-22T09:26:25;8.43;;;6.50;;
19278;SDS011;9773;47.062;15.446;2022-10-22T09:28:51;8.63;;;6.70;;
19278;SDS011;9773;47.062;15.446;2022-10-22T09:31:17;9.67;;;6.83;;
19278;SDS011;9773;47.062;15.446;2022-10-22T09:33:44;8.30;;;7.03;;
19278;SDS011;9773;47.062;15.446;2022-10-22T09:36:16;8.83;;;7.07;;
19278;SDS011;9773;47.062;15.446;2022-10-22T09:38:46;7.13;;;6.43;;
19278;SDS011;9773;47.062;15.446;2022-10-22T09:41:14;6.30;;;5.70;;
19278;SDS011;9773;47.062;15.446;2022-10-22T09:43:40;10.70;;;6.03;;
19278;SDS011;9773;47.062;15.446;2022-10-22T09:46:07;9.07;;;6.43;;
19278;SDS011;9773;47.062;15.446;2022-10-22T09:48:40;9.63;;;6.40;;
19278;SDS011;9773;47.062;15.446;2022-10-22T09:51:14;8.00;;;5.67;;
19278;SDS011;9773;47.062;15.446;2022-10-22T09:53:46;9.57;;;7.10;;
19278;SDS011;9773;47.062;15.446;2022-10-22T09:56:22;6.67;;;5.97;;
19278;SDS011;9773;47.062;15.446;2022-10-22T09:58:59;9.80;;;6.53;;
19278;SDS011;9773;47.062;15.446;2022-10-22T10:01:33;7.57;;;6.77;;
19278;SDS011;9773;47.062;15.446;2022-10-22T10:04:06;6.93;;;6.13;;
19278;SDS011;9773;47.062;15.446;2022-10-22T10:06:34;7.40;;;5.97;;
19278;SDS011;9773;47.062;15.446;2022-10-22T10:09:25;7.40;;;6.13;;
19278;SDS011;9773;47.062;15.446;2022-10-22T10:14:52;10.37;;;6.90;;
19278;SDS011;9773;47.062;15.446;2022-10-22T10:22:57;6.87;;;6.07;;
19278;SDS011;9773;47.062;15.446;2022-10-22T10:26:02;8.77;;;7.50;;
19278;SDS011;9773;47.062;15.446;2022-10-22T10:33:36;7.00;;;6.30;;
19278;SDS011;9773;47.062;15.446;2022-10-22T10:41:45;6.70;;;6.00;;
19278;SDS011;9773;47.062;15.446;2022-10-22T10:50:17;8.20;;;7.30;;
19278;SDS011;9773;47.062;15.446;2022-10-22T10:55:35;7.73;;;6.43;;
19278;SDS011;9773;47.062;15.446;2022-10-22T11:01:11;9.27;;;6.70;;
19278;SDS011;9773;47.062;15.446;2022-10-22T11:06:44;7.80;;;7.00;;
19278;SDS011;9773;47.062;15.446;2022-10-22T11:09:17;7.37;;;6.30;;
19278;SDS011;9773;47.062;15.446;2022-10-22T11:11:55;9.57;;;7.60;;
19278;SDS011;9773;47.062;15.446;2022-10-22T11:14:31;9.07;;;7.67;;
19278;SDS011;9773;47.062;15.446;2022-10-22T11:17:34;12.40;;;9.50;;
19278;SDS011;9773;47.062;15.446;2022-10-22T11:27:31;9.50;;;7.63;;
19278;SDS011;9773;47.062;15.446;2022-10-22T11:30:07;9.47;;;8.00;;
19278;SDS011;9773;47.062;15.446;2022-10-22T11:32:38;8.30;;;7.53;;
19278;SDS011;9773;47.062;15.446;2022-10-22T11:35:07;10.33;;;7.93;;
19278;SDS011;9773;47.062;15.446;2022-10-22T11:37:56;10.20;;;8.07;;
19278;SDS011;9773;47.062;15.446;2022-10-22T11:40:36;14.67;;;8.67;;
19278;SDS011;9773;47.062;15.446;2022-10-22T11:43:09;10.83;;;8.80;;
19278;SDS011;9773;47.062;15.446;2022-10-22T11:45:37;11.63;;;8.70;;
19278;SDS011;9773;47.062;15.446;2022-10-22T11:48:06;10.93;;;8.43;;
19278;SDS011;9773;47.062;15.446;2022-10-22T11:50:46;12.27;;;9.30;;
19278;SDS011;9773;47.062;15.446;2022-10-22T11:55:50;9.90;;;8.77;;
19278;SDS011;9773;47.062;15.446;2022-10-22T11:58:39;10.77;;;9.60;;
19278;SDS011;9773;47.062;15.446;2022-10-22T12:11:34;11.47;;;9.50;;
19278;SDS011;9773;47.062;15.446;2022-10-22T12:16:56;11.77;;;10.37;;
19278;SDS011;9773;47.062;15.446;2022-10-22T12:19:30;14.17;;;11.23;;
19278;SDS011;9773;47.062;15.446;2022-10-22T12:22:10;12.77;;;10.53;;
19278;SDS011;9773;47.062;15.446;2022-10-22T12:24:38;15.10;;;11.17;;
19278;SDS011;9773;47.062;15.446;2022-10-22T12:27:23;13.43;;;10.50;;
19278;SDS011;9773;47.062;15.446;2022-10-22T12:29:57;14.87;;;10.97;;
19278;SDS011;9773;47.062;15.446;2022-10-22T12:32:37;17.60;;;11.57;;
19278;SDS011;9773;47.062;15.446;2022-10-22T12:35:10;13.10;;;11.20;;
19278;SDS011;9773;47.062;15.446;2022-10-22T12:37:41;12.03;;;10.07;;
19278;SDS011;9773;47.062;15.446;2022-10-22T12:40:20;13.60;;;10.97;;
19278;SDS011;9773;47.062;15.446;2022-10-22T12:42:52;11.67;;;10.40;;
19278;SDS011;9773;47.062;15.446;2022-10-22T12:45:20;13.90;;;10.70;;
19278;SDS011;9773;47.062;15.446;2022-10-22T12:47:51;15.23;;;10.67;;
19278;SDS011;9773;47.062;15.446;2022-10-22T12:50:31;14.07;;;11.33;;
19278;SDS011;9773;47.062;15.446;2022-10-22T12:53:04;14.50;;;10.63;;
19278;SDS011;9773;47.062;15.446;2022-10-22T12:55:50;14.63;;;10.73;;
19278;SDS011;9773;47.062;15.446;2022-10-22T12:58:19;14.80;;;10.77;;
19278;SDS011;9773;47.062;15.446;2022-10-22T13:00:47;12.50;;;11.03;;
19278;SDS011;9773;47.062;15.446;2022-10-22T13:03:25;17.10;;;11.20;;
19278;SDS011;9773;47.062;15.446;2022-10-22T13:06:20;16.63;;;12.17;;
19278;SDS011;9773;47.062;15.446;2022-10-22T13:11:29;15.37;;;12.40;;
19278;SDS011;9773;47.062;15.446;2022-10-22T13:14:01;14.60;;;11.77;;
19278;SDS011;9773;47.062;15.446;2022-10-22T13:16:38;18.53;;;12.57;;
19278;SDS011;9773;47.062;15.446;2022-10-22T13:19:04;15.63;;;13.10;;
19278;SDS011;9773;47.062;15.446;2022-10-22T13:21:33;14.27;;;12.37;;
19278;SDS011;9773;47.062;15.446;2022-10-22T13:24:17;15.30;;;12.27;;
19278;SDS011;9773;47.062;15.446;2022-10-22T13:26:49;16.77;;;11.37;;
19278;SDS011;9773;47.062;15.446;2022-10-22T13:29:17;13.67;;;11.20;;
19278;SDS011;9773;47.062;15.446;2022-10-22T13:31:46;14.67;;;11.00;;
19278;SDS011;9773;47.062;15.446;2022-10-22T13:34:15;17.80;;;14.00;;
19278;SDS011;9773;47.062;15.446;2022-10-22T13:36:46;17.50;;;11.30;;
19278;SDS011;9773;47.062;15.446;2022-10-22T13:39:19;13.40;;;11.23;;
19278;SDS011;9773;47.062;15.446;2022-10-22T13:41:47;14.10;;;11.40;;
19278;SDS011;9773;47.062;15.446;2022-10-22T13:44:14;12.17;;;10.70;;
19278;SDS011;9773;47.062;15.446;2022-10-22T13:46:44;13.67;;;11.10;;
19278;SDS011;9773;47.062;15.446;2022-10-22T13:49:28;15.40;;;10.97;;
19278;SDS011;9773;47.062;15.446;2022-10-22T13:51:54;15.70;;;12.23;;
19278;SDS011;9773;47.062;15.446;2022-10-22T13:54:21;18.80;;;12.10;;
19278;SDS011;9773;47.062;15.446;2022-10-22T13:56:48;14.30;;;11.07;;
19278;SDS011;9773;47.062;15.446;2022-10-22T13:59:14;16.57;;;12.13;;
19278;SDS011;9773;47.062;15.446;2022-10-22T14:01:40;13.67;;;11.63;;
19278;SDS011;9773;47.062;15.446;2022-10-22T14:04:07;15.00;;;11.63;;
19278;SDS011;9773;47.062;15.446;2022-10-22T14:06:36;12.43;;;10.97;;
19278;SDS011;9773;47.062;15.446;2022-10-22T14:09:03;14.20;;;11.07;;
19278;SDS011;9773;47.062;15.446;2022-10-22T14:11:33;14.37;;;11.17;;
19278;SDS011;9773;47.062;15.446;2022-10-22T14:13:59;15.23;;;11.77;;
19278;SDS011;9773;47.062;15.446;2022-10-22T14:16:29;13.20;;;10.93;;
19278;SDS011;9773;47.062;15.446;2022-10-22T14:18:57;15.20;;;11.53;;
19278;SDS011;9773;47.062;15.446;2022-10-22T14:21:24;16.07;;;11.73;;
19278;SDS011;9773;47.062;15.446;2022-10-22T14:23:52;13.93;;;10.97;;
19278;SDS011;9773;47.062;15.446;2022-10-22T14:26:25;16.83;;;10.70;;
19278;SDS011;9773;47.062;15.446;2022-10-22T14:28:55;13.17;;;11.37;;
19278;SDS011;9773;47.062;15.446;2022-10-22T14:31:21;11.63;;;10.07;;
19278;SDS011;9773;47.062;15.446;2022-10-22T14:33:47;12.40;;;10.73;;
19278;SDS011;9773;47.062;15.446;2022-10-22T14:36:15;11.77;;;10.57;;
19278;SDS011;9773;47.062;15.446;2022-10-22T14:38:42;13.73;;;11.23;;
19278;SDS011;9773;47.062;15.446;2022-10-22T14:41:17;14.50;;;10.93;;
19278;SDS011;9773;47.062;15.446;2022-10-22T14:43:45;15.63;;;10.90;;
19278;SDS011;9773;47.062;15.446;2022-10-22T14:46:11;16.17;;;11.17;;
19278;SDS011;9773;47.062;15.446;2022-10-22T14:48:38;12.67;;;11.03;;
19278;SDS011;9773;47.062;15.446;2022-10-22T14:51:04;15.77;;;11.37;;
19278;SDS011;9773;47.062;15.446;2022-10-22T14:53:30;14.83;;;11.00;;
19278;SDS011;9773;47.062;15.446;2022-10-22T14:55:56;13.30;;;11.00;;
19278;SDS011;9773;47.062;15.446;2022-10-22T14:58:24;15.40;;;11.87;;
19278;SDS011;9773;47.062;15.446;2022-10-22T15:00:50;13.40;;;11.73;;
19278;SDS011;9773;47.062;15.446;2022-10-22T15:03:16;19.60;;;13.33;;
19278;SDS011;9773;47.062;15.446;2022-10-22T15:05:42;14.97;;;12.23;;
19278;SDS011;9773;47.062;15.446;2022-10-22T15:08:09;17.97;;;13.57;;
19278;SDS011;9773;47.062;15.446;2022-10-22T15:10:35;18.37;;;12.77;;
19278;SDS011;9773;47.062;15.446;2022-10-22T15:13:01;14.83;;;11.87;;
19278;SDS011;9773;47.062;15.446;2022-10-22T15:15:27;16.10;;;12.63;;
19278;SDS011;9773;47.062;15.446;2022-10-22T15:17:53;17.40;;;13.03;;
19278;SDS011;9773;47.062;15.446;2022-10-22T15:20:18;16.67;;;11.87;;
19278;SDS011;9773;47.062;15.446;2022-10-22T15:22:44;16.17;;;13.33;;
19278;SDS011;9773;47.062;15.446;2022-10-22T15:25:10;17.10;;;12.93;;
19278;SDS011;9773;47.062;15.446;2022-10-22T15:27:37;14.50;;;12.13;;
19278;SDS011;9773;47.062;15.446;2022-10-22T15:30:04;16.23;;;12.43;;
19278;SDS011;9773;47.062;15.446;2022-10-22T15:32:30;14.37;;;12.87;;
19278;SDS011;9773;47.062;15.446;2022-10-22T15:34:58;17.17;;;12.37;;
19278;SDS011;9773;47.062;15.446;2022-10-22T15:37:25;17.63;;;13.00;;
19278;SDS011;9773;47.062;15.446;2022-10-22T15:39:51;16.33;;;12.53;;
19278;SDS011;9773;47.062;15.446;2022-10-22T15:42:17;15.03;;;12.70;;
19278;SDS011;9773;47.062;15.446;2022-10-22T15:44:44;17.80;;;13.33;;
19278;SDS011;9773;47.062;15.446;2022-10-22T15:47:12;14.30;;;12.80;;
19278;SDS011;9773;47.062;15.446;2022-10-22T15:49:38;17.03;;;13.60;;
19278;SDS011;9773;47.062;15.446;2022-10-22T15:52:06;15.63;;;13.93;;
19278;SDS011;9773;47.062;15.446;2022-10-22T15:54:33;15.37;;;13.77;;
19278;SDS011;9773;47.062;15.446;2022-10-22T15:56:59;15.43;;;12.90;;
19278;SDS011;9773;47.062;15.446;2022-10-22T15:59:32;15.67;;;12.90;;
19278;SDS011;9773;47.062;15.446;2022-10-22T16:01:58;16.33;;;13.60;;
19278;SDS011;9773;47.062;15.446;2022-10-22T16:04:24;14.10;;;12.17;;
19278;SDS011;9773;47.062;15.446;2022-10-22T16:06:50;13.93;;;12.33;;
19278;SDS011;9773;47.062;15.446;2022-10-22T16:09:18;16.53;;;12.57;;
19278;SDS011;9773;47.062;15.446;2022-10-22T16:11:45;15.23;;;12.67;;
19278;SDS011;9773;47.062;15.446;2022-10-22T16:14:12;15.73;;;11.90;;
19278;SDS011;9773;47.062;15.446;2022-10-22T16:16:43;13.33;;;11.30;;
19278;SDS011;9773;47.062;15.446;2022-10-22T16:19:11;13.17;;;11.77;;
19278;SDS011;9773;47.062;15.446;2022-10-22T16:21:38;13.63;;;11.43;;
19278;SDS011;9773;47.062;15.446;2022-10-22T16:24:04;13.43;;;12.03;;
19278;SDS011;9773;47.062;15.446;2022-10-22T16:26:31;11.97;;;10.77;;
19278;SDS011;9773;47.062;15.446;2022-10-22T16:28:57;12.10;;;10.17;;
19278;SDS011;9773;47.062;15.446;2022-10-22T16:31:23;14.00;;;10.30;;
19278;SDS011;9773;47.062;15.446;2022-10-22T16:33:49;11.67;;;10.30;;